Time;durP1;ratioP1;P1;durP2;ratioP2;P2;SDS_P1;SDS_P2;PMS_P1;PMS_P2;Temp;Humidity;BMP_temperature;BMP_pressure;BME280_temperature;BME280_humidity;BME280_pressure;Samples;Min_cycle;Max_cycle;Signal;HPM_P1;HPM_P2
2023/03/14 00:00:12;;;;;;;3.63;2.33;;;12.80;99.90;;;;;;5010278;28;20037;-55
2023/03/14 00:02:58;;;;;;;3.25;2.20;;;12.70;99.90;;;;;;5027305;28;20029;-48
2023/03/14 00:05:44;;;;;;;3.20;2.22;;;12.70;99.90;;;;;;5030299;28;20117;-46
2023/03/14 00:08:30;;;;;;;2.40;1.90;;;12.70;99.90;;;;;;5030496;28;20045;-48
2023/03/14 00:11:19;;;;;;;2.17;1.90;;;12.70;99.90;;;;;;5031046;28;20425;-49
2023/03/14 00:14:32;;;;;;;2.25;1.92;;;12.70;99.90;;;;;;5020738;28;20037;-48
2023/03/14 00:17:18;;;;;;;2.58;2.10;;;12.70;99.90;;;;;;5017981;28;20029;-54
2023/03/14 00:20:10;;;;;;;2.40;2.20;;;12.60;99.90;;;;;;5010773;28;20030;-53
2023/03/14 00:22:56;;;;;;;2.83;2.08;;;12.60;99.90;;;;;;5023107;28;20556;-49
2023/03/14 00:25:42;;;;;;;4.63;3.78;;;12.60;99.90;;;;;;5016226;28;20041;-54
2023/03/14 00:28:29;;;;;;;3.13;2.60;;;12.50;99.90;;;;;;5030622;28;20033;-51
2023/03/14 00:31:15;;;;;;;2.63;2.20;;;12.40;99.90;;;;;;5030056;28;20108;-53
2023/03/14 00:34:01;;;;;;;2.53;1.88;;;12.40;99.90;;;;;;5021997;28;20042;-51
2023/03/14 00:36:47;;;;;;;3.25;2.03;;;12.50;99.90;;;;;;5025704;28;20430;-55
2023/03/14 00:39:33;;;;;;;3.67;1.92;;;12.50;99.90;;;;;;5031412;28;20402;-51
2023/03/14 00:42:19;;;;;;;2.00;1.80;;;12.50;99.90;;;;;;5007542;28;20034;-53
2023/03/14 00:45:07;;;;;;;2.33;1.90;;;12.50;99.90;;;;;;5009805;28;20034;-52
2023/03/14 00:47:53;;;;;;;3.42;2.30;;;12.40;99.90;;;;;;5010303;28;20034;-55
2023/03/14 00:50:39;;;;;;;3.50;1.92;;;12.50;99.90;;;;;;4998993;28;20088;-53
2023/03/14 00:53:25;;;;;;;2.15;1.95;;;12.50;99.90;;;;;;5028821;28;20397;-52
2023/03/14 00:56:12;;;;;;;2.00;1.80;;;12.50;99.90;;;;;;5030188;28;20032;-55
2023/03/14 00:58:58;;;;;;;4.57;1.95;;;12.50;99.90;;;;;;5031572;28;20034;-55
2023/03/14 01:01:44;;;;;;;1.95;1.75;;;12.50;99.90;;;;;;5022248;28;20099;-56
2023/03/14 01:04:31;;;;;;;2.45;1.77;;;12.50;99.90;;;;;;5014974;28;20037;-53
2023/03/14 01:07:17;;;;;;;3.33;2.10;;;12.50;99.90;;;;;;5037638;28;20456;-56
2023/03/14 01:10:04;;;;;;;3.45;2.20;;;12.40;99.90;;;;;;5036550;28;20033;-56
2023/03/14 01:12:51;;;;;;;2.65;1.75;;;12.40;99.90;;;;;;5020732;28;20043;-51
2023/03/14 01:15:37;;;;;;;1.77;1.67;;;12.40;99.90;;;;;;5029949;28;20115;-55
2023/03/14 01:18:24;;;;;;;2.67;1.92;;;12.30;99.90;;;;;;5030568;28;20026;-54
2023/03/14 01:21:31;;;;;;;1.88;1.73;;;12.30;99.90;;;;;;5027773;28;20037;-55
2023/03/14 01:24:17;;;;;;;2.33;1.80;;;12.30;99.90;;;;;;5031547;28;20057;-52
2023/03/14 01:27:03;;;;;;;2.55;1.88;;;12.30;99.90;;;;;;5032358;28;20033;-55
2023/03/14 01:29:48;;;;;;;3.25;2.00;;;12.30;99.90;;;;;;5033798;28;20037;-49
2023/03/14 01:32:35;;;;;;;2.72;2.10;;;12.20;99.90;;;;;;5033564;28;20026;-52
2023/03/14 01:35:21;;;;;;;2.22;1.80;;;12.20;99.90;;;;;;5017078;28;20534;-53
2023/03/14 01:38:07;;;;;;;4.15;2.30;;;12.30;99.90;;;;;;5033183;28;20505;-53
2023/03/14 01:40:53;;;;;;;2.03;1.73;;;12.30;99.90;;;;;;5033293;28;20522;-53
2023/03/14 01:43:38;;;;;;;2.70;2.10;;;12.40;99.90;;;;;;5033045;28;20041;-54
2023/03/14 01:46:28;;;;;;;3.33;2.00;;;12.40;99.90;;;;;;5033480;28;20037;-52
2023/03/14 01:49:35;;;;;;;2.10;1.90;;;12.30;99.90;;;;;;5012866;28;20033;-50
2023/03/14 01:52:31;;;;;;;2.30;2.10;;;12.40;99.90;;;;;;5013670;28;20022;-53
2023/03/14 01:55:24;;;;;;;2.58;1.90;;;12.40;99.90;;;;;;5022644;28;20041;-55
2023/03/14 01:58:10;;;;;;;2.55;2.00;;;12.40;99.90;;;;;;5031609;28;20553;-54
2023/03/14 02:00:58;;;;;;;2.50;2.03;;;12.40;99.90;;;;;;5032670;28;20037;-49
2023/03/14 02:03:50;;;;;;;3.08;2.10;;;12.40;99.90;;;;;;5034023;28;20494;-53
2023/03/14 02:06:45;;;;;;;2.83;2.10;;;12.40;99.90;;;;;;5032948;28;20048;-53
2023/03/14 02:09:31;;;;;;;3.63;2.10;;;12.30;99.90;;;;;;5033245;28;20112;-52
2023/03/14 02:12:18;;;;;;;2.10;1.90;;;12.30;99.90;;;;;;5013679;28;20034;-51
2023/03/14 02:15:04;;;;;;;1.98;1.88;;;12.30;99.90;;;;;;5015379;28;20017;-50
2023/03/14 02:17:52;;;;;;;2.35;2.15;;;12.30;99.90;;;;;;5029576;28;20113;-53
2023/03/14 02:21:06;;;;;;;3.67;2.22;;;12.30;99.90;;;;;;5022731;28;20057;-54
2023/03/14 02:23:58;;;;;;;3.00;1.90;;;12.30;99.90;;;;;;5013029;28;20041;-52
2023/03/14 02:27:01;;;;;;;3.22;2.15;;;12.30;99.90;;;;;;5028643;28;20124;-51
2023/03/14 02:29:59;;;;;;;2.17;1.85;;;12.30;99.90;;;;;;5032067;28;20029;-52
2023/03/14 02:33:07;;;;;;;2.55;2.08;;;12.20;99.90;;;;;;5025923;28;20048;-53
2023/03/14 02:36:05;;;;;;;2.00;1.80;;;12.20;99.90;;;;;;5031874;28;20183;-57
2023/03/14 02:39:00;;;;;;;1.95;1.80;;;12.20;99.90;;;;;;5033015;28;20025;-56
2023/03/14 02:41:48;;;;;;;3.50;2.03;;;12.20;99.90;;;;;;5032083;28;20084;-54
2023/03/14 02:44:35;;;;;;;2.13;1.70;;;12.20;99.90;;;;;;5032741;28;20038;-54
2023/03/14 02:47:27;;;;;;;2.00;1.80;;;12.20;99.90;;;;;;5031774;28;20061;-51
2023/03/14 02:50:19;;;;;;;3.35;2.00;;;12.20;99.90;;;;;;5031749;28;20490;-54
2023/03/14 02:53:05;;;;;;;3.05;1.88;;;12.20;99.90;;;;;;5031951;28;20389;-52
2023/03/14 02:55:51;;;;;;;2.05;1.80;;;12.10;99.90;;;;;;5031619;28;20025;-53
2023/03/14 02:58:37;;;;;;;2.33;2.03;;;12.10;99.90;;;;;;5020082;28;20050;-51
2023/03/14 03:01:24;;;;;;;4.07;1.83;;;12.10;99.90;;;;;;5028221;28;20037;-49
2023/03/14 03:04:10;;;;;;;3.53;2.10;;;12.20;99.90;;;;;;5019965;28;20037;-50
2023/03/14 03:06:56;;;;;;;2.17;1.80;;;12.10;99.90;;;;;;5011811;28;20410;-53
2023/03/14 03:09:41;;;;;;;2.25;1.80;;;12.10;99.90;;;;;;5018962;28;20021;-53
2023/03/14 03:12:27;;;;;;;3.53;2.05;;;12.10;99.90;;;;;;5032272;28;20037;-54
2023/03/14 03:15:13;;;;;;;2.72;2.08;;;12.10;99.90;;;;;;5031715;28;20115;-51
2023/03/14 03:17:59;;;;;;;2.15;1.67;;;12.10;99.90;;;;;;5031240;28;20033;-53
2023/03/14 03:20:45;;;;;;;6.88;2.22;;;12.10;99.90;;;;;;5031118;28;20061;-52
2023/03/14 03:23:31;;;;;;;3.40;1.98;;;12.20;99.90;;;;;;5031958;28;20025;-53
2023/03/14 03:26:17;;;;;;;5.57;2.08;;;12.20;99.90;;;;;;5031696;28;20050;-52
2023/03/14 03:29:03;;;;;;;3.05;1.70;;;12.20;99.90;;;;;;5030258;28;20028;-53
2023/03/14 03:31:49;;;;;;;2.40;2.13;;;12.20;99.90;;;;;;5011994;28;20073;-53
2023/03/14 03:34:35;;;;;;;4.00;2.15;;;12.20;99.90;;;;;;5018414;28;20036;-57
2023/03/14 03:37:21;;;;;;;2.90;2.00;;;12.20;99.90;;;;;;5029940;28;20064;-55
2023/03/14 03:40:08;;;;;;;4.00;2.25;;;12.20;99.90;;;;;;5016627;28;20042;-55
2023/03/14 03:42:54;;;;;;;3.28;2.42;;;12.10;99.90;;;;;;5011905;28;20028;-59
2023/03/14 03:45:40;;;;;;;3.30;1.95;;;12.10;99.90;;;;;;5025361;28;20398;-52
2023/03/14 03:48:26;;;;;;;5.90;2.60;;;12.10;99.90;;;;;;5021634;28;20033;-52
2023/03/14 03:51:14;;;;;;;3.78;2.20;;;12.10;99.90;;;;;;5031305;28;20037;-52
2023/03/14 03:54:00;;;;;;;3.17;1.80;;;12.10;99.90;;;;;;5016502;28;20017;-54
2023/03/14 03:56:46;;;;;;;3.75;2.03;;;12.10;99.90;;;;;;5011197;28;20068;-49
2023/03/14 03:59:32;;;;;;;2.90;2.10;;;12.10;99.90;;;;;;5019138;28;20061;-50
2023/03/14 04:02:17;;;;;;;3.05;2.33;;;12.10;99.90;;;;;;5029978;28;20030;-56
2023/03/14 04:05:04;;;;;;;3.00;2.20;;;12.00;99.90;;;;;;5029599;28;20036;-51
2023/03/14 04:07:50;;;;;;;2.67;2.00;;;12.00;99.90;;;;;;5030708;28;20524;-54
2023/03/14 04:10:36;;;;;;;4.03;2.50;;;12.00;99.90;;;;;;5021744;28;20087;-53
2023/03/14 04:13:22;;;;;;;2.88;2.20;;;12.00;99.90;;;;;;5023575;28;20430;-55
2023/03/14 04:16:16;;;;;;;2.88;1.88;;;12.00;99.90;;;;;;5027849;28;20490;-49
2023/03/14 04:19:02;;;;;;;3.42;2.20;;;11.90;99.90;;;;;;5029057;28;20378;-52
2023/03/14 04:21:48;;;;;;;5.40;2.42;;;11.90;99.90;;;;;;5009319;28;20030;-48
2023/03/14 04:24:35;;;;;;;3.45;2.22;;;11.90;99.90;;;;;;5025934;28;20029;-50
2023/03/14 04:27:20;;;;;;;2.78;2.10;;;12.00;99.90;;;;;;5028864;28;20017;-51
2023/03/14 04:30:07;;;;;;;5.05;2.20;;;11.90;99.90;;;;;;5029270;28;20116;-54
2023/03/14 04:32:53;;;;;;;5.82;2.20;;;11.90;99.90;;;;;;5029771;28;20028;-57
2023/03/14 04:35:39;;;;;;;2.97;2.30;;;11.90;99.90;;;;;;5030287;28;20018;-54
2023/03/14 04:38:25;;;;;;;4.47;2.50;;;12.00;99.90;;;;;;5029874;28;20022;-54
2023/03/14 04:41:11;;;;;;;5.65;2.33;;;11.90;99.90;;;;;;5034192;28;20049;-54
2023/03/14 04:43:57;;;;;;;5.90;2.17;;;11.90;99.90;;;;;;5033041;28;20030;-51
2023/03/14 04:46:43;;;;;;;5.32;2.63;;;11.90;99.90;;;;;;5014746;28;20038;-52
2023/03/14 04:49:29;;;;;;;4.22;2.53;;;11.90;99.90;;;;;;5028947;28;20044;-50
2023/03/14 04:52:15;;;;;;;4.05;2.50;;;11.90;99.90;;;;;;5020463;28;20115;-48
2023/03/14 04:55:01;;;;;;;5.00;2.40;;;11.80;99.90;;;;;;5034909;28;20025;-53
2023/03/14 04:57:47;;;;;;;5.18;2.58;;;11.80;99.90;;;;;;5032952;28;20129;-50
2023/03/14 05:00:33;;;;;;;5.65;3.05;;;11.80;99.90;;;;;;5034217;28;20383;-53
2023/03/14 05:03:19;;;;;;;8.38;3.05;;;11.80;99.90;;;;;;5020021;28;20486;-51
2023/03/14 05:06:05;;;;;;;5.95;2.75;;;11.80;99.90;;;;;;5006040;28;20128;-50
2023/03/14 05:08:51;;;;;;;4.75;2.33;;;11.80;99.90;;;;;;5034328;28;20053;-49
2023/03/14 05:11:37;;;;;;;5.38;2.72;;;11.80;99.90;;;;;;5034074;28;20397;-51
2023/03/14 05:14:23;;;;;;;5.57;2.92;;;11.70;99.90;;;;;;5019441;28;20390;-50
2023/03/14 05:17:09;;;;;;;8.10;2.85;;;11.70;99.90;;;;;;5032708;28;20562;-55
2023/03/14 05:19:55;;;;;;;7.10;3.10;;;11.70;99.90;;;;;;5027806;28;20034;-55
2023/03/14 05:22:41;;;;;;;5.57;2.65;;;11.70;99.90;;;;;;5026368;28;20402;-57
2023/03/14 05:25:27;;;;;;;8.63;2.90;;;11.70;99.90;;;;;;5034177;28;20030;-53
2023/03/14 05:28:13;;;;;;;4.07;2.67;;;11.70;99.90;;;;;;5033509;28;20065;-54
2023/03/14 05:30:59;;;;;;;6.88;2.75;;;11.70;99.90;;;;;;5034901;28;20026;-56
2023/03/14 05:33:45;;;;;;;7.22;2.55;;;11.60;99.90;;;;;;5033442;28;20033;-53
2023/03/14 05:36:31;;;;;;;5.57;2.67;;;11.60;99.90;;;;;;5005678;28;20025;-53
2023/03/14 05:39:18;;;;;;;4.68;2.75;;;11.60;99.90;;;;;;5033893;28;20041;-52
2023/03/14 05:42:04;;;;;;;9.15;3.08;;;11.50;99.90;;;;;;5033218;28;20030;-54
2023/03/14 05:44:50;;;;;;;6.38;3.40;;;11.50;99.90;;;;;;5034219;28;20021;-55
2023/03/14 05:47:35;;;;;;;8.30;3.20;;;11.50;99.90;;;;;;5027599;28;20117;-53
2023/03/14 05:50:21;;;;;;;5.65;2.67;;;11.50;99.90;;;;;;5031365;28;20030;-52
2023/03/14 05:53:07;;;;;;;5.43;2.85;;;11.50;99.90;;;;;;5019590;28;20029;-50
2023/03/14 05:55:54;;;;;;;6.22;2.92;;;11.40;99.90;;;;;;5032430;28;20061;-52
2023/03/14 05:58:40;;;;;;;13.52;3.25;;;11.40;99.90;;;;;;5023781;28;20108;-55
2023/03/14 06:01:26;;;;;;;8.07;2.78;;;11.50;99.90;;;;;;5033141;28;20030;-53
2023/03/14 06:04:13;;;;;;;4.45;2.17;;;11.50;99.90;;;;;;5033575;28;20056;-53
2023/03/14 06:06:59;;;;;;;6.10;2.67;;;11.50;99.90;;;;;;5017825;28;20409;-51
2023/03/14 06:09:45;;;;;;;5.22;2.60;;;11.60;99.90;;;;;;5033402;28;20033;-55
2023/03/14 06:12:31;;;;;;;6.63;2.80;;;11.60;99.90;;;;;;5032342;28;20080;-55
2023/03/14 06:15:17;;;;;;;6.60;2.53;;;11.60;99.90;;;;;;5033789;28;20064;-51
2023/03/14 06:18:03;;;;;;;4.97;2.35;;;11.60;99.90;;;;;;5031304;28;20029;-51
2023/03/14 06:20:49;;;;;;;5.15;2.65;;;11.60;99.90;;;;;;5024872;28;20100;-52
2023/03/14 06:23:35;;;;;;;4.70;3.00;;;11.60;99.90;;;;;;5019138;28;20032;-56
2023/03/14 06:26:22;;;;;;;6.32;2.40;;;11.60;99.90;;;;;;5032469;28;20033;-53
2023/03/14 06:29:09;;;;;;;6.90;2.58;;;11.60;99.90;;;;;;5031905;28;20030;-49
2023/03/14 06:31:55;;;;;;;7.20;2.47;;;11.60;99.90;;;;;;5034264;28;20395;-51
2023/03/14 06:34:41;;;;;;;6.22;2.40;;;11.60;99.90;;;;;;5024794;28;20498;-53
2023/03/14 06:37:28;;;;;;;6.00;2.45;;;11.60;99.90;;;;;;5019999;28;20629;-52
2023/03/14 06:40:17;;;;;;;6.40;2.67;;;11.60;99.90;;;;;;5034344;28;20404;-57
2023/03/14 06:43:03;;;;;;;6.07;2.63;;;11.60;99.90;;;;;;5032988;28;20075;-57
2023/03/14 06:45:49;;;;;;;6.35;2.55;;;11.60;99.90;;;;;;5032609;28;20032;-50
2023/03/14 06:48:35;;;;;;;5.03;2.42;;;11.60;99.90;;;;;;5018915;28;20113;-56
2023/03/14 06:51:21;;;;;;;4.18;2.40;;;11.70;99.90;;;;;;5021632;28;20064;-51
2023/03/14 06:54:07;;;;;;;7.20;3.58;;;11.80;99.90;;;;;;5012863;28;20032;-54
2023/03/14 06:56:53;;;;;;;5.47;2.53;;;11.80;99.90;;;;;;5027174;28;20022;-56
2023/03/14 06:59:39;;;;;;;3.03;2.22;;;11.70;99.90;;;;;;5032476;28;20513;-55
2023/03/14 07:02:25;;;;;;;6.13;2.67;;;11.70;99.90;;;;;;5028333;28;20025;-52
2023/03/14 07:05:11;;;;;;;5.10;2.40;;;11.80;99.90;;;;;;5013092;28;20063;-54
2023/03/14 07:07:57;;;;;;;6.32;2.50;;;11.90;99.90;;;;;;5016787;28;20505;-51
2023/03/14 07:10:42;;;;;;;5.95;2.70;;;11.90;99.90;;;;;;5023137;28;20533;-51
2023/03/14 07:13:28;;;;;;;8.00;2.63;;;11.90;99.90;;;;;;5032314;28;20022;-55
2023/03/14 07:16:15;;;;;;;5.88;2.63;;;11.80;99.90;;;;;;5031864;28;20099;-53
2023/03/14 07:19:02;;;;;;;4.75;2.50;;;11.80;99.90;;;;;;5016070;28;20119;-56
2023/03/14 07:21:48;;;;;;;5.22;2.72;;;11.90;99.90;;;;;;5023180;28;20398;-54
2023/03/14 07:24:34;;;;;;;6.05;2.90;;;12.00;99.90;;;;;;5032577;28;20032;-53
2023/03/14 07:27:20;;;;;;;6.45;2.95;;;12.00;99.90;;;;;;5012060;28;20069;-51
2023/03/14 07:30:06;;;;;;;7.53;3.40;;;12.00;99.90;;;;;;5013684;28;20034;-54
2023/03/14 07:32:52;;;;;;;4.28;2.30;;;12.00;99.90;;;;;;5035936;28;20030;-52
2023/03/14 07:35:38;;;;;;;3.70;2.85;;;12.10;99.90;;;;;;5016069;28;20033;-50
2023/03/14 07:38:24;;;;;;;4.72;2.30;;;12.00;99.90;;;;;;5038109;28;20029;-51
2023/03/14 07:41:10;;;;;;;8.60;2.72;;;12.10;99.90;;;;;;5039663;28;20033;-49
2023/03/14 07:43:56;;;;;;;4.28;2.30;;;12.10;99.90;;;;;;5035054;28;20041;-51
2023/03/14 07:46:41;;;;;;;5.15;2.40;;;12.20;99.90;;;;;;5025776;28;20037;-51
2023/03/14 07:49:27;;;;;;;3.63;2.40;;;12.30;99.90;;;;;;5039709;28;20056;-50
2023/03/14 07:52:13;;;;;;;5.93;2.75;;;12.60;99.90;;;;;;5039423;28;20028;-53
2023/03/14 07:54:59;;;;;;;9.13;3.20;;;12.80;99.90;;;;;;5023073;28;20028;-55
2023/03/14 07:57:45;;;;;;;6.20;2.50;;;12.80;99.90;;;;;;5011697;28;20034;-53
2023/03/14 08:00:32;;;;;;;4.82;2.85;;;13.00;99.90;;;;;;5013701;28;20068;-55
2023/03/14 08:03:18;;;;;;;6.10;2.60;;;13.10;99.90;;;;;;5030233;28;20501;-54
2023/03/14 08:06:04;;;;;;;5.25;2.67;;;13.00;99.90;;;;;;5024541;28;20105;-52
2023/03/14 08:08:50;;;;;;;3.95;2.55;;;13.10;99.90;;;;;;5028915;28;20037;-57
2023/03/14 08:11:36;;;;;;;3.67;2.15;;;13.10;99.90;;;;;;5020814;28;20390;-55
2023/03/14 08:14:25;;;;;;;8.50;2.90;;;13.00;99.90;;;;;;5023304;28;20030;-56
2023/03/14 08:17:11;;;;;;;5.50;2.40;;;13.10;99.90;;;;;;5026757;28;20116;-55
2023/03/14 08:19:57;;;;;;;9.50;2.72;;;13.30;99.90;;;;;;5020370;28;20109;-55
2023/03/14 08:22:43;;;;;;;4.68;2.83;;;13.10;99.90;;;;;;5033052;28;20021;-50
2023/03/14 08:25:29;;;;;;;3.88;2.08;;;13.20;99.90;;;;;;5027008;28;20040;-52
2023/03/14 08:28:15;;;;;;;5.60;2.22;;;13.10;99.90;;;;;;5025486;28;20029;-53
2023/03/14 08:31:01;;;;;;;5.63;3.20;;;12.90;99.90;;;;;;5024210;28;20029;-56
2023/03/14 08:33:47;;;;;;;4.80;2.05;;;13.00;99.90;;;;;;5034604;28;20105;-56
2023/03/14 08:36:33;;;;;;;2.88;1.70;;;12.90;99.90;;;;;;5034923;28;20029;-55
2023/03/14 08:39:19;;;;;;;3.55;2.05;;;12.90;99.90;;;;;;5034887;28;20041;-56
2023/03/14 08:42:05;;;;;;;5.38;1.88;;;12.90;99.90;;;;;;5035093;28;20071;-53
2023/03/14 08:44:54;;;;;;;3.42;2.13;;;12.90;99.90;;;;;;5020210;28;20474;-57
2023/03/14 08:47:40;;;;;;;2.85;2.00;;;13.00;99.90;;;;;;5032869;28;20482;-54
2023/03/14 08:50:26;;;;;;;4.45;2.20;;;13.20;99.90;;;;;;5022892;28;20029;-53
2023/03/14 08:53:12;;;;;;;4.00;2.10;;;13.20;99.90;;;;;;5022253;28;20033;-55
2023/03/14 08:55:58;;;;;;;4.25;2.17;;;13.10;99.90;;;;;;5030191;28;20030;-51
2023/03/14 08:58:44;;;;;;;2.60;1.80;;;13.10;99.90;;;;;;5024372;28;20026;-55
2023/03/14 09:01:30;;;;;;;3.95;1.85;;;13.00;99.90;;;;;;5033277;28;20033;-55
2023/03/14 09:04:16;;;;;;;4.43;2.15;;;12.90;99.90;;;;;;5033732;28;20041;-50
2023/03/14 09:07:01;;;;;;;2.40;2.03;;;13.00;99.90;;;;;;5033287;28;20041;-55
2023/03/14 09:09:48;;;;;;;4.28;1.90;;;13.00;99.90;;;;;;5006366;28;20025;-55
2023/03/14 09:12:34;;;;;;;3.75;1.92;;;13.00;99.90;;;;;;5034055;28;20036;-55
2023/03/14 09:15:20;;;;;;;3.85;1.67;;;13.00;99.90;;;;;;5034301;28;20037;-54
2023/03/14 09:18:06;;;;;;;3.45;1.55;;;13.00;99.90;;;;;;5032620;28;20147;-56
2023/03/14 09:20:52;;;;;;;3.00;1.73;;;13.10;99.90;;;;;;5033526;28;20077;-48
2023/03/14 09:23:39;;;;;;;2.17;1.55;;;13.20;99.90;;;;;;5022614;28;20026;-49
2023/03/14 09:26:25;;;;;;;2.83;1.65;;;13.30;99.90;;;;;;5018300;28;20021;-48
2023/03/14 09:29:11;;;;;;;3.67;1.75;;;13.20;99.90;;;;;;5014581;28;20033;-59
2023/03/14 09:31:58;;;;;;;3.30;1.95;;;13.10;99.90;;;;;;5015119;28;20045;-61
2023/03/14 09:34:44;;;;;;;2.63;1.65;;;13.20;99.90;;;;;;5002952;28;20028;-57
2023/03/14 09:37:30;;;;;;;2.78;1.90;;;13.10;99.90;;;;;;5021084;28;20033;-59
2023/03/14 09:40:18;;;;;;;3.53;1.60;;;13.20;99.90;;;;;;5031942;28;20026;-59
2023/03/14 09:43:04;;;;;;;4.75;2.30;;;13.10;99.90;;;;;;5025783;28;20437;-58
2023/03/14 09:45:51;;;;;;;4.00;1.85;;;13.00;99.90;;;;;;5013456;28;20022;-60
2023/03/14 09:48:37;;;;;;;3.03;1.88;;;12.90;99.90;;;;;;5014330;28;20061;-57
2023/03/14 09:51:24;;;;;;;3.75;1.63;;;12.90;99.90;;;;;;5015647;28;20060;-57
2023/03/14 09:54:26;;;;;;;1.55;1.45;;;12.80;99.90;;;;;;5025023;28;20099;-56
2023/03/14 09:57:18;;;;;;;2.40;1.52;;;12.80;99.90;;;;;;5001142;28;20131;-56
2023/03/14 10:00:17;;;;;;;3.63;2.00;;;12.80;99.90;;;;;;4999359;28;20775;-60
2023/03/14 10:03:20;;;;;;;1.73;1.50;;;12.80;99.90;;;;;;5013157;28;20034;-59
2023/03/14 10:06:12;;;;;;;3.08;2.25;;;12.90;99.90;;;;;;5012689;28;20502;-58
2023/03/14 10:08:58;;;;;;;4.15;1.88;;;12.80;99.90;;;;;;5013546;28;20036;-57
2023/03/14 10:11:44;;;;;;;3.40;1.75;;;12.80;99.90;;;;;;5000420;28;20495;-60
2023/03/14 10:14:43;;;;;;;2.72;1.83;;;12.80;99.90;;;;;;5013303;28;20462;-58
2023/03/14 10:17:37;;;;;;;2.45;1.73;;;12.80;99.90;;;;;;4999128;28;20018;-59
2023/03/14 10:20:33;;;;;;;3.10;1.58;;;12.80;99.90;;;;;;5014839;28;20088;-57
2023/03/14 10:23:27;;;;;;;1.83;1.48;;;12.90;99.90;;;;;;5024376;28;20021;-57
2023/03/14 10:26:23;;;;;;;3.00;1.50;;;12.90;99.90;;;;;;5031921;28;20030;-59
2023/03/14 10:29:12;;;;;;;1.52;1.42;;;12.90;99.90;;;;;;5024189;28;20539;-56
2023/03/14 10:32:04;;;;;;;2.22;1.85;;;12.80;99.90;;;;;;5028520;28;20513;-53
2023/03/14 10:35:05;;;;;;;2.38;1.52;;;12.90;99.90;;;;;;5031995;28;20037;-56
2023/03/14 10:37:56;;;;;;;3.13;1.92;;;12.90;99.90;;;;;;5030685;28;20065;-57
2023/03/14 10:40:52;;;;;;;2.83;2.00;;;13.00;99.90;;;;;;5030179;28;20486;-57
2023/03/14 10:43:38;;;;;;;4.50;2.40;;;13.00;99.90;;;;;;5010444;28;20029;-56
2023/03/14 10:46:26;;;;;;;4.45;2.20;;;12.90;99.90;;;;;;5028882;28;20025;-55
2023/03/14 10:49:33;;;;;;;3.78;1.80;;;12.90;99.90;;;;;;5028158;28;20125;-54
2023/03/14 10:52:27;;;;;;;3.28;1.75;;;12.90;99.90;;;;;;5031947;28;20100;-58
2023/03/14 10:55:13;;;;;;;2.40;1.35;;;12.90;99.90;;;;;;5027509;28;20081;-49
2023/03/14 10:57:59;;;;;;;2.00;1.40;;;13.00;99.90;;;;;;5029074;28;20103;-54
2023/03/14 11:00:53;;;;;;;1.00;1.00;;;13.10;99.90;;;;;;5030468;28;20133;-56
2023/03/14 11:03:44;;;;;;;1.20;1.20;;;13.20;99.90;;;;;;5025040;28;20040;-57
2023/03/14 11:06:53;;;;;;;1.15;1.15;;;13.40;99.90;;;;;;5031730;28;20033;-51
2023/03/14 11:10:14;;;;;;;1.58;1.40;;;13.60;99.90;;;;;;5032276;28;20029;-58
2023/03/14 11:13:25;;;;;;;1.88;1.20;;;13.60;99.90;;;;;;5030056;28;20083;-58
2023/03/14 11:16:14;;;;;;;1.50;1.40;;;13.60;99.90;;;;;;5020888;28;20080;-55
2023/03/14 11:19:16;;;;;;;1.40;1.30;;;13.60;99.90;;;;;;5032210;28;20018;-53
2023/03/14 11:22:10;;;;;;;1.42;1.33;;;13.80;99.90;;;;;;5024533;28;20044;-54
2023/03/14 11:25:07;;;;;;;2.17;1.30;;;13.60;99.90;;;;;;5018390;28;20030;-53
2023/03/14 11:28:31;;;;;;;1.55;1.40;;;13.70;99.90;;;;;;5020169;28;20035;-56
2023/03/14 11:31:33;;;;;;;1.70;1.58;;;13.90;99.90;;;;;;5019096;28;20040;-56
2023/03/14 11:34:44;;;;;;;2.28;1.90;;;13.90;99.90;;;;;;5031466;28;20026;-58
2023/03/14 11:37:36;;;;;;;2.97;1.63;;;13.80;99.90;;;;;;5029506;28;20026;-56
2023/03/14 11:40:25;;;;;;;1.80;1.50;;;13.40;99.90;;;;;;5030928;28;20042;-56
2023/03/14 11:43:20;;;;;;;1.65;1.50;;;13.00;99.90;;;;;;5012564;28;20034;-51
2023/03/14 11:46:13;;;;;;;;;;;13.00;99.90;;;;;;5030365;28;20039;-52
2023/03/14 11:49:24;;;;;;;2.28;1.50;;;13.10;99.90;;;;;;5030152;28;20022;-57
2023/03/14 11:52:25;;;;;;;2.75;1.58;;;13.10;99.90;;;;;;5027048;28;20025;-55
2023/03/14 11:55:32;;;;;;;5.63;1.80;;;13.10;99.90;;;;;;5027091;28;20026;-48
2023/03/14 11:58:27;;;;;;;2.55;1.80;;;13.00;99.90;;;;;;5021994;28;20033;-51
2023/03/14 12:01:17;;;;;;;3.00;1.90;;;13.00;99.90;;;;;;5029721;28;20030;-47
2023/03/14 12:04:13;;;;;;;2.72;2.10;;;13.10;99.90;;;;;;5029660;28;20026;-53
2023/03/14 12:07:08;;;;;;;4.88;2.42;;;13.20;99.90;;;;;;5030198;28;20032;-50
2023/03/14 12:09:55;;;;;;;;;;;13.40;99.90;;;;;;5027582;28;20045;-51
2023/03/14 12:12:41;;;;;;;2.58;1.90;;;13.40;99.90;;;;;;5030983;28;19909;-49
2023/03/14 12:15:28;;;;;;;2.50;1.60;;;13.40;99.90;;;;;;5031232;28;20029;-56
2023/03/14 12:18:30;;;;;;;2.40;1.48;;;13.50;99.90;;;;;;5016037;28;20029;-49
2023/03/14 12:21:17;;;;;;;4.30;1.80;;;13.40;99.90;;;;;;5027879;28;20026;-52
2023/03/14 12:24:25;;;;;;;1.70;1.42;;;13.40;99.90;;;;;;5006448;28;20018;-57
2023/03/14 12:27:33;;;;;;;1.75;1.10;;;13.30;99.90;;;;;;5011283;28;20026;-61
2023/03/14 12:30:27;;;;;;;1.52;1.40;;;13.30;99.90;;;;;;5017279;28;20425;-57
2023/03/14 12:33:20;;;;;;;2.85;1.70;;;13.40;99.90;;;;;;5031916;28;20032;-58
2023/03/14 12:36:19;;;;;;;1.70;1.55;;;13.30;99.90;;;;;;5030132;28;20062;-56
2023/03/14 12:39:30;;;;;;;2.60;1.33;;;13.40;99.90;;;;;;5030630;28;20564;-53
2023/03/14 12:42:42;;;;;;;4.10;1.88;;;13.60;99.90;;;;;;4997606;28;20040;-58
2023/03/14 12:45:36;;;;;;;2.08;1.85;;;13.70;99.90;;;;;;5010514;28;20025;-59
2023/03/14 12:48:25;;;;;;;1.30;1.20;;;13.70;99.90;;;;;;5014900;28;20085;-57
2023/03/14 12:51:46;;;;;;;2.90;1.73;;;13.70;99.90;;;;;;5030342;28;20044;-57
2023/03/14 12:54:52;;;;;;;1.55;1.40;;;13.70;99.90;;;;;;5030516;28;20406;-56
2023/03/14 12:57:53;;;;;;;1.27;1.20;;;13.70;99.90;;;;;;5029954;28;20053;-57
2023/03/14 13:00:40;;;;;;;1.70;1.58;;;13.80;99.90;;;;;;5031147;28;20055;-57
2023/03/14 13:03:47;;;;;;;2.20;1.50;;;13.90;99.90;;;;;;5019814;28;20026;-54
2023/03/14 13:06:56;;;;;;;2.05;1.60;;;14.00;99.90;;;;;;5033123;28;20033;-53
2023/03/14 13:10:01;;;;;;;1.65;1.50;;;14.00;99.90;;;;;;5020157;28;20042;-58
2023/03/14 13:12:57;;;;;;;2.50;1.73;;;13.90;99.90;;;;;;5024721;28;20033;-56
2023/03/14 13:15:45;;;;;;;2.65;1.65;;;13.90;99.90;;;;;;5032415;28;20398;-57
2023/03/14 13:18:41;;;;;;;2.80;1.60;;;13.90;99.90;;;;;;5018194;28;20033;-60
2023/03/14 13:21:27;;;;;;;;;;;13.80;99.90;;;;;;5019203;28;20032;-57
2023/03/14 13:24:25;;;;;;;1.90;1.70;;;13.70;99.90;;;;;;5033324;28;20331;-56
2023/03/14 13:27:20;;;;;;;1.50;1.40;;;13.80;99.90;;;;;;5033939;28;20076;-56
2023/03/14 13:30:26;;;;;;;2.30;1.60;;;13.90;99.90;;;;;;5033210;28;20075;-58
2023/03/14 13:33:18;;;;;;;2.60;1.40;;;14.30;99.90;;;;;;5033610;28;20033;-56
2023/03/14 13:36:05;;;;;;;1.70;1.58;;;14.50;99.90;;;;;;5032655;28;20049;-53
2023/03/14 13:39:01;;;;;;;1.60;1.50;;;14.60;99.90;;;;;;5028271;28;20036;-58
2023/03/14 13:41:48;;;;;;;1.70;1.60;;;14.80;99.70;;;;;;5030435;28;20022;-56
2023/03/14 13:44:37;;;;;;;1.67;1.58;;;14.80;99.70;;;;;;5024782;28;20043;-58
2023/03/14 13:47:25;;;;;;;4.10;1.77;;;14.70;99.80;;;;;;5032598;28;20026;-61
2023/03/14 13:50:18;;;;;;;3.33;1.77;;;14.60;99.80;;;;;;5033017;28;20033;-57
2023/03/14 13:53:03;;;;;;;2.70;1.98;;;14.50;99.30;;;;;;5033396;28;20034;-56
2023/03/14 13:55:51;;;;;;;1.55;1.45;;;14.30;99.90;;;;;;5033273;28;20171;-58
2023/03/14 13:58:38;;;;;;;1.38;1.27;;;14.10;99.90;;;;;;5032186;28;20076;-56
2023/03/14 14:01:33;;;;;;;2.80;1.90;;;14.10;99.90;;;;;;5013413;28;20026;-54
2023/03/14 14:04:24;;;;;;;1.60;1.50;;;14.20;99.90;;;;;;5018978;28;20435;-59
2023/03/14 14:07:16;;;;;;;1.73;1.40;;;14.30;99.90;;;;;;5032240;28;20498;-58
2023/03/14 14:10:02;;;;;;;1.67;1.33;;;14.30;99.90;;;;;;5032394;28;20025;-58
2023/03/14 14:12:58;;;;;;;2.08;1.70;;;14.30;99.90;;;;;;5032309;28;20025;-57
2023/03/14 14:15:46;;;;;;;2.97;1.95;;;14.10;99.90;;;;;;5028793;28;20128;-60
2023/03/14 14:18:34;;;;;;;2.58;1.83;;;14.10;99.90;;;;;;5031483;28;20112;-62
2023/03/14 14:21:20;;;;;;;1.70;1.60;;;14.00;99.90;;;;;;5031756;28;20034;-61
2023/03/14 14:24:07;;;;;;;2.38;1.60;;;14.00;99.90;;;;;;5027430;22;20029;-55
2023/03/14 14:27:00;;;;;;;1.67;1.50;;;13.80;99.90;;;;;;5006075;28;20061;-56
2023/03/14 14:30:01;;;;;;;2.03;1.58;;;13.70;99.90;;;;;;5031386;28;20409;-57
2023/03/14 14:32:49;;;;;;;2.60;1.70;;;13.50;99.90;;;;;;5029581;28;20037;-56
2023/03/14 14:35:35;;;;;;;1.70;1.60;;;13.30;99.90;;;;;;5014992;28;20633;-57
2023/03/14 14:38:22;;;;;;;2.58;2.15;;;13.00;99.90;;;;;;5013014;28;20124;-58
2023/03/14 14:41:11;;;;;;;3.85;2.30;;;12.60;99.90;;;;;;5012074;28;20651;-58
2023/03/14 14:43:58;;;;;;;10.68;2.50;;;12.50;99.90;;;;;;5011109;28;20030;-57